Time;durP1;ratioP1;P1;durP2;ratioP2;P2;SDS_P1;SDS_P2;PMS_P1;PMS_P2;Temp;Humidity;BMP_temperature;BMP_pressure;BME280_temperature;BME280_humidity;BME280_pressure;Samples;Min_cycle;Max_cycle;Signal;HPM_P1;HPM_P2
2023/10/11 00:00:37;;;;;;;6.70;4.30;;;19.60;55.30;;;;;;5072365;28;20246;-77
2023/10/11 00:03:06;;;;;;;6.40;4.32;;;19.60;55.30;;;;;;5072109;28;20214;-77
2023/10/11 00:05:39;;;;;;;7.18;4.30;;;19.60;55.50;;;;;;5059365;28;20607;-77
2023/10/11 00:08:08;;;;;;;9.23;3.95;;;19.50;55.50;;;;;;5075980;28;20190;-78
2023/10/11 00:10:42;;;;;;;6.05;4.00;;;19.50;55.30;;;;;;5076745;28;20218;-78
2023/10/11 00:13:12;;;;;;;6.53;4.20;;;19.50;55.30;;;;;;5060431;28;20289;-78
2023/10/11 00:15:39;;;;;;;6.75;4.22;;;19.50;55.50;;;;;;5076233;28;20230;-78
2023/10/11 00:18:06;;;;;;;6.93;4.75;;;19.50;55.40;;;;;;5076087;28;20191;-78
2023/10/11 00:20:47;;;;;;;8.88;4.80;;;19.50;55.20;;;;;;5075533;28;20219;-78
2023/10/11 00:23:14;;;;;;;6.55;4.32;;;19.50;55.40;;;;;;5076798;28;20202;-78
2023/10/11 00:25:44;;;;;;;6.53;4.50;;;19.50;55.40;;;;;;5058987;28;20205;-78
2023/10/11 00:28:14;;;;;;;6.80;4.85;;;19.50;55.40;;;;;;5075479;28;20186;-78
2023/10/11 00:30:46;;;;;;;7.65;4.75;;;19.50;55.20;;;;;;5075562;28;20218;-78
2023/10/11 00:33:13;;;;;;;6.13;4.45;;;19.50;55.40;;;;;;5075718;28;20213;-78
2023/10/11 00:35:44;;;;;;;5.55;4.15;;;19.40;55.50;;;;;;5058799;28;20228;-78
2023/10/11 00:38:18;;;;;;;7.28;4.78;;;19.50;55.50;;;;;;5075766;28;20240;-78
2023/10/11 00:40:47;;;;;;;5.13;4.40;;;19.40;55.30;;;;;;5076390;28;20218;-78
2023/10/11 00:43:19;;;;;;;6.97;4.63;;;19.40;55.50;;;;;;5075413;28;20206;-78
2023/10/11 00:45:46;;;;;;;7.10;4.70;;;19.40;55.30;;;;;;5075397;28;20202;-78
2023/10/11 00:48:14;;;;;;;5.72;4.53;;;19.40;55.50;;;;;;5076328;28;20202;-78
2023/10/11 00:50:43;;;;;;;7.93;4.40;;;19.40;55.50;;;;;;5075430;28;20252;-78
2023/10/11 00:53:12;;;;;;;6.20;4.20;;;19.40;55.50;;;;;;5075220;28;20205;-78
2023/10/11 00:55:41;;;;;;;4.97;4.40;;;19.40;55.50;;;;;;5058683;28;20198;-78
2023/10/11 00:58:08;;;;;;;7.95;4.63;;;19.40;55.50;;;;;;5074970;28;20198;-78
2023/10/11 01:00:36;;;;;;;6.22;4.20;;;19.40;55.40;;;;;;5074834;28;20297;-78
2023/10/11 01:03:05;;;;;;;7.88;4.60;;;19.40;55.50;;;;;;5074913;28;20199;-78
2023/10/11 01:05:33;;;;;;;7.00;4.63;;;19.40;55.50;;;;;;5075070;28;20199;-78
2023/10/11 01:08:00;;;;;;;6.07;4.10;;;19.40;55.70;;;;;;5058575;28;20238;-78
2023/10/11 01:10:29;;;;;;;7.05;4.53;;;19.30;55.70;;;;;;5074796;28;20218;-78
2023/10/11 01:12:58;;;;;;;7.25;4.70;;;19.30;55.60;;;;;;5074807;28;20576;-78
2023/10/11 01:15:25;;;;;;;6.72;4.53;;;19.30;55.70;;;;;;5075210;28;20289;-78
2023/10/11 01:17:54;;;;;;;7.72;3.67;;;19.30;55.70;;;;;;5074495;28;20282;-78
2023/10/11 01:20:21;;;;;;;5.75;4.45;;;19.30;55.70;;;;;;5074600;28;20256;-78
2023/10/11 01:22:50;;;;;;;5.95;4.13;;;19.30;55.70;;;;;;5058202;28;20632;-78
2023/10/11 01:25:18;;;;;;;7.03;4.53;;;19.30;55.60;;;;;;5074507;28;20205;-78
2023/10/11 01:27:47;;;;;;;5.90;4.38;;;19.30;55.70;;;;;;5074353;28;20294;-78
2023/10/11 01:30:14;;;;;;;6.03;4.50;;;19.30;55.60;;;;;;5074357;28;20218;-78
2023/10/11 01:32:42;;;;;;;6.68;4.40;;;19.30;56.20;;;;;;5074350;28;20206;-78
2023/10/11 01:35:11;;;;;;;8.20;4.68;;;19.30;55.60;;;;;;5074398;28;20244;-78
2023/10/11 01:37:43;;;;;;;6.90;4.80;;;19.30;55.50;;;;;;5074414;28;20226;-78
2023/10/11 01:40:20;;;;;;;7.38;4.60;;;19.30;55.70;;;;;;5074294;28;20596;-78
2023/10/11 01:42:49;;;;;;;6.20;4.38;;;19.30;55.60;;;;;;5074519;28;20191;-78
2023/10/11 01:45:17;;;;;;;6.78;4.25;;;19.20;55.60;;;;;;5074208;28;20210;-78
2023/10/11 01:47:47;;;;;;;7.25;4.30;;;19.20;55.70;;;;;;5074103;28;20226;-78
2023/10/11 01:50:15;;;;;;;6.10;4.25;;;19.30;55.90;;;;;;5074686;28;20226;-78
2023/10/11 01:52:42;;;;;;;5.47;4.30;;;19.20;55.60;;;;;;5074132;28;20294;-78
2023/10/11 01:55:11;;;;;;;6.93;4.10;;;19.30;55.60;;;;;;5074669;28;20560;-78
2023/10/11 01:57:41;;;;;;;6.38;4.18;;;19.20;55.50;;;;;;5075366;28;20642;-78
2023/10/11 02:00:13;;;;;;;5.95;4.30;;;19.30;55.70;;;;;;5074121;28;20210;-78
2023/10/11 02:02:47;;;;;;;6.85;4.32;;;19.30;55.70;;;;;;5074651;28;20202;-78
2023/10/11 02:05:15;;;;;;;6.85;4.88;;;19.30;55.70;;;;;;5074040;28;20222;-78
2023/10/11 02:07:42;;;;;;;7.18;4.43;;;19.20;55.60;;;;;;5073712;28;20218;-78
2023/10/11 02:10:12;;;;;;;6.38;4.50;;;19.20;55.60;;;;;;5074844;28;20211;-78
2023/10/11 02:12:44;;;;;;;6.50;4.50;;;19.20;55.60;;;;;;5073631;28;20194;-78
2023/10/11 02:15:21;;;;;;;6.45;4.10;;;19.20;55.50;;;;;;5073534;28;20281;-78
2023/10/11 02:17:51;;;;;;;5.15;3.90;;;19.20;55.70;;;;;;5073414;28;20179;-78
2023/10/11 02:20:21;;;;;;;6.65;4.32;;;19.20;55.80;;;;;;5073169;28;20222;-78
2023/10/11 02:22:51;;;;;;;5.57;4.18;;;19.20;55.70;;;;;;5073344;28;20191;-78
2023/10/11 02:25:19;;;;;;;6.55;4.13;;;19.20;55.70;;;;;;5073269;28;20568;-78
2023/10/11 02:27:50;;;;;;;8.13;4.43;;;19.20;55.80;;;;;;5072549;28;20260;-78
2023/10/11 02:30:21;;;;;;;4.88;4.10;;;19.20;55.60;;;;;;5073669;28;20242;-78
2023/10/11 02:32:50;;;;;;;6.95;4.53;;;19.20;55.80;;;;;;5073188;28;20214;-78
2023/10/11 02:35:18;;;;;;;6.65;4.28;;;19.10;55.60;;;;;;5073680;28;20195;-78
2023/10/11 02:37:46;;;;;;;6.50;4.13;;;19.10;55.50;;;;;;5073399;28;20195;-78
2023/10/11 02:40:16;;;;;;;6.93;5.00;;;19.10;55.60;;;;;;5072974;28;20627;-78
2023/10/11 02:42:49;;;;;;;7.07;4.72;;;19.10;55.70;;;;;;5072906;28;20194;-78
2023/10/11 02:45:19;;;;;;;7.40;3.92;;;19.10;55.60;;;;;;5072884;28;20205;-78
2023/10/11 02:47:46;;;;;;;6.70;3.92;;;19.10;55.50;;;;;;5073352;28;20221;-78
2023/10/11 02:50:13;;;;;;;6.95;4.75;;;19.10;55.70;;;;;;5056375;28;20250;-78
2023/10/11 02:52:42;;;;;;;6.60;4.30;;;19.10;55.60;;;;;;5072880;28;20198;-78
2023/10/11 02:55:20;;;;;;;5.10;3.85;;;19.10;55.50;;;;;;5072759;28;20202;-78
2023/10/11 02:58:05;;;;;;;6.68;4.32;;;19.10;55.70;;;;;;5073399;28;20190;-78
2023/10/11 03:00:33;;;;;;;6.22;4.38;;;19.10;55.60;;;;;;5072767;28;20242;-78
2023/10/11 03:03:01;;;;;;;8.18;4.22;;;19.10;55.60;;;;;;5073147;28;20199;-78
2023/10/11 03:05:29;;;;;;;6.60;4.20;;;19.10;55.50;;;;;;5073743;28;20195;-78
2023/10/11 03:08:13;;;;;;;8.40;4.70;;;19.10;55.40;;;;;;5072693;28;20207;-78
2023/10/11 03:10:47;;;;;;;6.22;4.05;;;19.10;55.40;;;;;;5072684;28;20309;-78
2023/10/11 03:13:19;;;;;;;5.43;4.28;;;19.10;55.70;;;;;;5056865;28;20187;-78
2023/10/11 03:15:54;;;;;;;7.45;4.18;;;19.10;55.60;;;;;;5072593;28;20194;-78
2023/10/11 03:18:25;;;;;;;6.80;4.28;;;19.10;55.70;;;;;;5073354;28;20194;-78
2023/10/11 03:20:58;;;;;;;5.45;4.20;;;19.10;55.70;;;;;;5072501;28;20214;-78
2023/10/11 03:23:27;;;;;;;6.38;4.30;;;19.10;55.80;;;;;;5073363;28;20199;-78
2023/10/11 03:25:56;;;;;;;7.47;4.55;;;19.10;55.50;;;;;;5073844;28;20195;-78
2023/10/11 03:28:27;;;;;;;5.68;3.97;;;19.10;55.50;;;;;;5072409;28;20219;-78
2023/10/11 03:30:55;;;;;;;5.80;4.25;;;19.20;55.50;;;;;;5072469;28;20222;-78
2023/10/11 03:33:23;;;;;;;7.18;4.13;;;19.30;55.30;;;;;;5072603;28;20202;-78
2023/10/11 03:35:50;;;;;;;5.55;4.30;;;19.30;55.30;;;;;;5072347;28;20674;-78
2023/10/11 03:38:21;;;;;;;5.10;3.95;;;19.30;55.10;;;;;;5074467;28;20186;-78
2023/10/11 03:41:11;;;;;;;5.90;4.05;;;19.30;55.00;;;;;;5077647;28;20232;-78
2023/10/11 03:43:40;;;;;;;6.85;4.15;;;19.40;55.00;;;;;;5077948;28;20171;-78
2023/10/11 03:46:09;;;;;;;7.03;4.40;;;19.40;55.50;;;;;;5076232;28;20206;-78
2023/10/11 03:48:44;;;;;;;7.68;4.53;;;19.40;54.70;;;;;;5076192;28;20215;-78
2023/10/11 03:51:12;;;;;;;6.40;4.28;;;19.40;54.60;;;;;;5060652;28;20214;-78
2023/10/11 03:53:39;;;;;;;5.50;3.92;;;19.40;54.60;;;;;;5076353;28;20190;-78
2023/10/11 03:56:07;;;;;;;5.63;4.00;;;19.40;54.50;;;;;;5059820;28;20199;-78
2023/10/11 03:58:37;;;;;;;5.57;4.00;;;19.40;54.70;;;;;;5117977;22;20692;-82
2023/10/11 04:01:13;;;;;;;5.35;4.07;;;19.40;54.50;;;;;;5059780;28;20219;-82
2023/10/11 04:03:41;;;;;;;6.55;4.28;;;19.40;54.60;;;;;;5044356;28;20216;-82
2023/10/11 04:06:14;;;;;;;5.65;4.15;;;19.40;54.80;;;;;;5079000;28;20187;-82
2023/10/11 04:08:43;;;;;;;4.82;4.05;;;19.40;54.70;;;;;;5059749;28;20242;-82
2023/10/11 04:11:18;;;;;;;4.25;3.60;;;19.40;54.70;;;;;;5043175;28;20210;-82
2023/10/11 04:13:47;;;;;;;6.55;4.18;;;19.40;54.70;;;;;;5061043;28;20194;-82
2023/10/11 04:16:17;;;;;;;6.32;4.07;;;19.40;54.60;;;;;;5061365;28;20195;-82
2023/10/11 04:18:44;;;;;;;6.38;4.35;;;19.30;54.70;;;;;;5060529;28;20187;-82
2023/10/11 04:24:00;;;;;;;4.30;3.75;;;19.30;54.70;;;;;;5023560;28;20200;-82
2023/10/11 04:26:33;;;;;;;6.65;4.63;;;19.30;55.40;;;;;;5060546;28;20233;-82
2023/10/11 04:29:06;;;;;;;6.00;4.30;;;19.30;54.80;;;;;;5044879;28;20218;-82
2023/10/11 04:31:53;;;;;;;6.47;4.10;;;19.30;54.80;;;;;;5061289;28;20286;-82
2023/10/11 04:34:23;;;;;;;5.97;4.10;;;19.30;54.80;;;;;;5062252;28;20245;-81
2023/10/11 04:36:55;;;;;;;4.82;3.88;;;19.20;54.60;;;;;;5061763;28;20285;-81
2023/10/11 04:39:28;;;;;;;5.13;4.30;;;19.20;54.90;;;;;;5060254;28;20286;-81
2023/10/11 04:41:57;;;;;;;6.10;3.83;;;19.20;54.70;;;;;;5059723;28;20190;-81
2023/10/11 04:44:30;;;;;;;6.40;4.50;;;19.20;54.80;;;;;;5060711;28;20195;-80
2023/10/11 04:47:00;;;;;;;5.47;3.83;;;19.20;54.70;;;;;;5060632;28;20629;-81
2023/10/11 04:49:30;;;;;;;4.85;3.42;;;19.20;54.80;;;;;;5060438;28;20223;-80
2023/10/11 04:51:58;;;;;;;4.78;3.88;;;19.20;54.90;;;;;;5061090;28;20207;-81
2023/10/11 04:54:35;;;;;;;5.18;3.60;;;19.20;54.90;;;;;;5060846;28;20599;-80
2023/10/11 04:57:07;;;;;;;4.80;4.10;;;19.10;54.90;;;;;;5061103;28;20657;-80
2023/10/11 04:59:37;;;;;;;5.93;3.88;;;19.10;54.90;;;;;;5079422;28;20215;-80
2023/10/11 05:02:16;;;;;;;6.28;4.50;;;19.20;55.00;;;;;;5061087;28;20194;-82
2023/10/11 05:04:44;;;;;;;6.00;4.05;;;19.10;54.50;;;;;;5061281;28;20600;-82
2023/10/11 05:07:13;;;;;;;4.40;3.97;;;19.10;54.70;;;;;;5060373;28;20202;-82
2023/10/11 05:09:40;;;;;;;6.18;3.90;;;19.10;54.90;;;;;;5044477;28;20728;-82
2023/10/11 05:12:11;;;;;;;4.80;3.60;;;19.10;54.80;;;;;;5064718;28;20545;-82
2023/10/11 05:14:56;;;;;;;7.63;4.10;;;19.10;54.80;;;;;;5058755;28;20195;-82
2023/10/11 05:17:33;;;;;;;5.45;4.13;;;19.10;54.80;;;;;;5058443;28;20252;-82
2023/10/11 05:20:22;;;;;;;4.90;3.90;;;19.10;54.80;;;;;;5058089;28;20309;-82
2023/10/11 05:22:49;;;;;;;6.07;4.13;;;19.10;54.90;;;;;;5059058;28;20245;-82
2023/10/11 05:25:37;;;;;;;7.65;4.40;;;19.00;54.80;;;;;;5042211;28;20193;-81
2023/10/11 05:28:15;;;;;;;5.75;3.88;;;19.10;54.70;;;;;;5059272;28;20206;-81
2023/10/11 05:30:44;;;;;;;4.97;4.03;;;19.00;54.70;;;;;;5058339;28;20211;-81
2023/10/11 05:33:41;;;;;;;6.63;4.10;;;19.00;55.40;;;;;;5058920;28;20198;-81
2023/10/11 05:36:36;;;;;;;4.80;3.53;;;19.00;54.80;;;;;;5060007;28;20233;-81
2023/10/11 05:52:48;;;;;;;5.28;3.75;;;18.90;54.40;;;;;;5058824;28;20187;-81
2023/10/11 05:55:16;;;;;;;4.88;4.03;;;18.90;54.90;;;;;;5042007;28;20195;-81
2023/10/11 05:57:44;;;;;;;5.05;4.25;;;18.90;54.90;;;;;;5058441;28;20198;-81
2023/10/11 06:00:23;;;;;;;6.65;4.22;;;18.90;55.00;;;;;;5057990;28;20689;-81
2023/10/11 06:02:51;;;;;;;5.95;3.92;;;18.90;54.80;;;;;;5057523;28;20217;-81
2023/10/11 06:05:23;;;;;;;4.63;3.67;;;18.90;55.00;;;;;;5057962;28;20253;-82
2023/10/11 06:08:00;;;;;;;6.72;3.80;;;18.90;55.10;;;;;;5058055;28;20293;-82
2023/10/11 06:10:35;;;;;;;6.15;4.20;;;18.90;55.10;;;;;;5042463;28;20218;-82
2023/10/11 06:13:07;;;;;;;5.18;4.00;;;18.90;55.10;;;;;;5057904;28;20288;-82
2023/10/11 06:15:36;;;;;;;5.40;4.60;;;18.90;55.30;;;;;;5057954;28;20198;-82
2023/10/11 06:18:05;;;;;;;5.28;4.18;;;18.90;55.40;;;;;;5058114;28;20610;-82
2023/10/11 06:20:39;;;;;;;6.80;4.38;;;19.00;55.40;;;;;;5058048;28;20225;-82
2023/10/11 06:23:06;;;;;;;5.40;3.75;;;19.00;55.40;;;;;;5058335;28;20286;-82
2023/10/11 06:28:15;;;;;;;5.57;4.30;;;19.00;55.30;;;;;;5057308;28;20220;-82
2023/10/11 06:30:42;;;;;;;4.72;3.85;;;19.00;55.30;;;;;;5059727;28;20210;-82
2023/10/11 06:33:12;;;;;;;4.88;3.95;;;19.00;55.20;;;;;;5058441;28;20190;-82
2023/10/11 06:35:45;;;;;;;4.80;4.30;;;19.00;55.00;;;;;;5041107;28;20661;-82
2023/10/11 06:38:13;;;;;;;5.35;4.13;;;19.00;55.00;;;;;;5058182;28;20186;-82
2023/10/11 06:40:39;;;;;;;6.00;4.25;;;19.10;55.00;;;;;;5057466;28;20265;-82
2023/10/11 06:43:07;;;;;;;5.22;4.07;;;19.10;54.90;;;;;;5057836;28;20197;-82
2023/10/11 06:45:33;;;;;;;7.13;4.55;;;19.10;55.00;;;;;;5043270;28;20206;-81
2023/10/11 06:48:06;;;;;;;6.28;4.38;;;19.10;54.80;;;;;;5058639;28;20242;-81
2023/10/11 06:50:35;;;;;;;4.57;3.85;;;19.10;54.80;;;;;;5058946;28;20226;-81
2023/10/11 06:53:07;;;;;;;5.53;4.20;;;19.10;54.80;;;;;;5059249;28;20209;-81
2023/10/11 06:55:35;;;;;;;5.88;4.30;;;19.20;54.90;;;;;;5058439;28;20248;-81
2023/10/11 06:58:06;;;;;;;5.55;3.90;;;19.20;54.80;;;;;;5058469;28;20676;-81
2023/10/11 07:00:37;;;;;;;6.00;4.13;;;19.20;54.80;;;;;;5058424;28;20220;-81
2023/10/11 07:03:09;;;;;;;7.45;3.97;;;19.20;54.70;;;;;;5059177;28;20195;-81
2023/10/11 07:05:46;;;;;;;4.90;4.00;;;19.30;54.80;;;;;;5058326;28;20205;-81
2023/10/11 07:08:17;;;;;;;6.32;3.95;;;19.30;54.80;;;;;;5058165;28;20211;-81
2023/10/11 07:10:45;;;;;;;5.28;4.25;;;19.30;54.80;;;;;;5058228;28;20619;-81
2023/10/11 07:13:13;;;;;;;6.45;4.13;;;19.30;54.70;;;;;;5055861;28;20191;-81
2023/10/11 07:15:41;;;;;;;4.82;3.95;;;19.30;54.60;;;;;;5056632;28;20244;-80
2023/10/11 07:18:11;;;;;;;4.97;3.97;;;19.40;54.70;;;;;;5057084;28;20207;-80
2023/10/11 07:20:58;;;;;;;5.65;4.30;;;19.40;54.60;;;;;;5040709;28;20221;-81
2023/10/11 07:23:45;;;;;;;5.45;3.95;;;19.50;54.60;;;;;;5044281;28;20218;-80
2023/10/11 07:26:48;;;;;;;8.52;4.32;;;19.50;54.40;;;;;;5058367;28;20218;-81
2023/10/11 07:29:12;;;;;;;5.88;4.13;;;19.50;54.40;;;;;;5057530;28;20235;-80
2023/10/11 07:31:48;;;;;;;5.30;4.40;;;19.60;54.50;;;;;;5041825;28;20194;-80
2023/10/11 07:34:17;;;;;;;5.82;4.13;;;19.60;54.20;;;;;;5061567;28;20541;-82
2023/10/11 07:36:44;;;;;;;6.65;4.30;;;19.60;54.30;;;;;;5060984;28;20199;-80
2023/10/11 07:39:19;;;;;;;5.07;4.13;;;19.70;54.30;;;;;;5060457;28;20223;-80
2023/10/11 07:41:47;;;;;;;5.32;3.97;;;19.80;54.20;;;;;;5060096;28;20194;-81
2023/10/11 07:44:14;;;;;;;5.05;4.05;;;19.90;54.00;;;;;;5058100;28;20573;-81
2023/10/11 07:46:41;;;;;;;4.63;4.03;;;19.90;53.90;;;;;;5058594;28;20256;-80
2023/10/11 07:49:14;;;;;;;5.35;4.18;;;19.90;53.80;;;;;;5060543;28;20226;-81
2023/10/11 07:51:42;;;;;;;9.35;4.93;;;20.00;53.80;;;;;;5058391;28;20194;-81
2023/10/11 07:54:19;;;;;;;5.88;4.20;;;20.00;53.80;;;;;;5059291;28;20242;-80
2023/10/11 07:56:48;;;;;;;6.53;4.10;;;20.00;53.70;;;;;;5057973;28;20187;-81
2023/10/11 07:59:15;;;;;;;5.65;4.03;;;20.30;53.50;;;;;;5057566;28;20753;-81
2023/10/11 08:01:45;;;;;;;6.40;4.20;;;20.40;53.30;;;;;;5057383;28;20195;-81
2023/10/11 08:04:13;;;;;;;6.55;4.10;;;20.60;53.00;;;;;;5057189;28;20199;-82
2023/10/11 08:06:41;;;;;;;7.72;4.60;;;20.80;52.60;;;;;;5056503;28;20575;-81
2023/10/11 08:09:09;;;;;;;4.85;3.85;;;21.00;52.20;;;;;;5057903;28;20261;-81
2023/10/11 08:11:45;;;;;;;4.65;3.88;;;21.20;51.90;;;;;;5057142;28;20206;-81
2023/10/11 08:14:15;;;;;;;6.60;4.35;;;21.30;51.50;;;;;;5057914;28;20218;-81
2023/10/11 08:16:47;;;;;;;6.65;4.47;;;21.40;51.80;;;;;;5057567;28;20203;-81
2023/10/11 08:19:14;;;;;;;5.75;4.15;;;21.60;50.90;;;;;;5057490;28;20357;-81
2023/10/11 08:21:47;;;;;;;5.95;4.05;;;21.70;50.60;;;;;;5057463;28;20199;-81
2023/10/11 08:24:16;;;;;;;5.90;4.28;;;21.90;50.40;;;;;;5041688;28;20226;-81
2023/10/11 08:26:45;;;;;;;5.47;3.95;;;21.90;50.10;;;;;;5060600;28;20564;-81
2023/10/11 08:29:27;;;;;;;4.43;3.90;;;22.00;49.90;;;;;;5060334;28;20264;-81
2023/10/11 08:31:57;;;;;;;5.53;3.83;;;22.10;49.80;;;;;;5060613;28;20218;-81
2023/10/11 08:34:25;;;;;;;3.95;3.30;;;22.20;49.80;;;;;;5060411;28;20602;-81
2023/10/11 08:36:54;;;;;;;6.70;3.63;;;22.30;49.80;;;;;;5060246;28;20203;-81
2023/10/11 08:39:27;;;;;;;4.00;3.38;;;22.30;49.70;;;;;;5059957;28;20219;-81
2023/10/11 08:41:58;;;;;;;3.72;3.33;;;22.40;49.50;;;;;;5059861;28;20194;-81
2023/10/11 08:44:27;;;;;;;4.35;3.50;;;22.50;49.30;;;;;;5059219;28;20260;-81
2023/10/11 08:46:55;;;;;;;3.95;3.50;;;22.60;49.10;;;;;;5058999;28;20715;-81
2023/10/11 08:49:23;;;;;;;4.00;3.28;;;22.60;48.80;;;;;;5071645;28;20298;-81
2023/10/11 08:51:50;;;;;;;3.95;3.15;;;22.70;48.80;;;;;;5070684;28;20199;-81
2023/10/11 08:54:25;;;;;;;4.25;3.70;;;22.70;48.60;;;;;;5043279;28;20190;-81
2023/10/11 08:56:54;;;;;;;4.25;3.53;;;22.70;48.30;;;;;;5042292;28;20188;-81
2023/10/11 08:59:25;;;;;;;3.85;3.22;;;22.80;48.20;;;;;;5042576;28;20219;-81
2023/10/11 09:01:59;;;;;;;3.97;3.58;;;22.90;48.10;;;;;;5059327;28;20183;-81
2023/10/11 09:04:27;;;;;;;4.20;3.55;;;23.00;48.10;;;;;;5059517;28;20269;-81
2023/10/11 09:06:57;;;;;;;4.43;3.33;;;23.00;48.00;;;;;;5059061;28;20243;-81
2023/10/11 09:09:32;;;;;;;3.50;3.20;;;23.10;47.90;;;;;;5059027;28;20226;-81
2023/10/11 09:11:59;;;;;;;5.50;3.65;;;23.10;47.70;;;;;;5059473;28;20556;-81
2023/10/11 09:14:29;;;;;;;3.92;3.45;;;23.20;47.60;;;;;;5059684;28;20228;-81
2023/10/11 09:16:57;;;;;;;3.50;3.20;;;23.20;47.50;;;;;;5060873;28;20195;-81
2023/10/11 09:19:24;;;;;;;4.97;3.55;;;23.20;47.30;;;;;;5061861;28;20689;-81
2023/10/11 09:22:02;;;;;;;4.63;3.35;;;23.30;47.30;;;;;;5061664;28;20191;-81
2023/10/11 09:24:37;;;;;;;4.03;3.22;;;23.40;47.20;;;;;;5061140;28;20237;-81
2023/10/11 09:27:18;;;;;;;4.30;3.58;;;23.40;47.10;;;;;;5030214;28;20198;-81
2023/10/11 09:29:46;;;;;;;4.68;3.45;;;23.40;47.00;;;;;;5062238;28;20226;-82
2023/10/11 09:32:19;;;;;;;3.67;3.25;;;23.40;46.90;;;;;;5044249;28;20203;-81
2023/10/11 09:34:47;;;;;;;5.32;3.42;;;23.50;47.50;;;;;;5060983;28;20195;-81
2023/10/11 09:37:14;;;;;;;4.20;3.28;;;23.50;46.80;;;;;;5061206;28;20248;-81
2023/10/11 09:39:42;;;;;;;3.65;3.15;;;23.50;46.80;;;;;;5060873;28;20210;-81
2023/10/11 09:42:11;;;;;;;3.88;3.20;;;23.60;46.80;;;;;;5061154;28;20202;-81
2023/10/11 09:44:39;;;;;;;4.65;3.33;;;23.50;46.70;;;;;;5061108;28;20195;-81
2023/10/11 09:47:10;;;;;;;3.63;3.10;;;23.60;46.80;;;;;;5061002;28;20198;-81
2023/10/11 09:49:41;;;;;;;3.90;3.10;;;23.60;46.80;;;;;;5059667;28;20719;-81
2023/10/11 09:52:10;;;;;;;4.45;3.60;;;23.60;46.70;;;;;;5059754;28;20194;-81
2023/10/11 09:54:39;;;;;;;4.03;3.15;;;23.60;47.30;;;;;;5059093;28;20256;-81
2023/10/11 09:57:15;;;;;;;4.47;3.35;;;23.60;46.70;;;;;;5059279;28;20199;-81
2023/10/11 09:59:47;;;;;;;3.55;3.10;;;23.60;46.70;;;;;;5059454;28;20228;-82
2023/10/11 10:02:19;;;;;;;3.20;2.90;;;23.60;46.70;;;;;;5060330;28;20195;-82
2023/10/11 10:04:58;;;;;;;3.83;3.13;;;23.60;46.70;;;;;;5060435;28;20201;-82
2023/10/11 10:07:26;;;;;;;3.42;3.13;;;23.60;46.70;;;;;;5060976;28;20538;-83
2023/10/11 10:09:54;;;;;;;3.95;3.30;;;23.60;46.70;;;;;;5042050;28;20234;-83
2023/10/11 10:12:21;;;;;;;3.50;3.17;;;23.50;46.70;;;;;;5058834;28;20191;-83
2023/10/11 10:15:09;;;;;;;3.35;3.05;;;23.60;46.80;;;;;;5059018;28;20198;-83
2023/10/11 10:17:38;;;;;;;4.00;3.60;;;23.60;46.80;;;;;;5059627;28;20550;-83
2023/10/11 10:20:50;;;;;;;3.92;3.53;;;23.60;46.80;;;;;;5058099;28;20720;-83
2023/10/11 10:26:38;;;;;;;4.22;3.50;;;23.50;46.80;;;;;;5055437;28;20199;-83
2023/10/11 10:29:09;;;;;;;3.35;3.05;;;23.50;46.80;;;;;;5057779;28;20211;-83
2023/10/11 10:31:37;;;;;;;4.75;3.00;;;23.50;46.80;;;;;;5058473;28;20558;-83
2023/10/11 10:34:29;;;;;;;4.05;3.10;;;23.50;46.90;;;;;;5059855;28;20194;-83
2023/10/11 10:37:01;;;;;;;4.15;3.22;;;23.50;47.00;;;;;;5059020;28;20222;-83
2023/10/11 10:39:46;;;;;;;3.85;3.00;;;23.40;47.00;;;;;;5058574;28;20689;-83
2023/10/11 10:42:15;;;;;;;3.58;3.05;;;23.50;47.10;;;;;;5058641;28;20206;-83
2023/10/11 10:44:54;;;;;;;4.30;3.03;;;23.40;47.00;;;;;;5057671;28;20716;-83
2023/10/11 10:47:25;;;;;;;3.78;3.00;;;23.40;47.00;;;;;;5056755;28;20569;-83
2023/10/11 10:49:54;;;;;;;4.45;3.22;;;23.50;47.20;;;;;;5057068;28;20685;-83
2023/10/11 10:52:22;;;;;;;3.20;2.90;;;23.40;47.10;;;;;;5056813;28;20201;-83
2023/10/11 10:55:01;;;;;;;3.78;3.38;;;23.40;47.20;;;;;;5056434;28;20198;-83
2023/10/11 10:57:27;;;;;;;4.32;3.17;;;23.40;47.30;;;;;;5057407;28;20311;-83
2023/10/11 10:59:55;;;;;;;3.22;2.80;;;23.40;47.40;;;;;;5057521;28;20214;-84
2023/10/11 11:02:21;;;;;;;3.30;3.00;;;23.40;47.50;;;;;;5056855;28;20237;-83
2023/10/11 11:04:48;;;;;;;4.15;3.30;;;23.30;47.40;;;;;;5057309;28;20198;-84
2023/10/11 11:07:22;;;;;;;4.22;2.80;;;23.30;47.50;;;;;;5058107;28;20244;-83
2023/10/11 11:09:54;;;;;;;3.33;3.03;;;23.30;47.70;;;;;;5057214;28;20250;-83
2023/10/11 11:12:27;;;;;;;3.40;3.10;;;23.30;47.80;;;;;;5059934;28;20190;-82
2023/10/11 11:14:55;;;;;;;3.65;2.92;;;23.30;47.80;;;;;;5058713;28;20187;-83
2023/10/11 11:17:24;;;;;;;3.47;2.83;;;23.30;47.90;;;;;;5057576;28;20202;-83
2023/10/11 11:20:14;;;;;;;3.28;2.70;;;23.30;47.90;;;;;;5057283;28;20237;-83
2023/10/11 11:22:45;;;;;;;3.42;3.13;;;23.30;47.90;;;;;;5057487;28;20187;-83
2023/10/11 11:25:26;;;;;;;3.17;2.60;;;23.40;47.90;;;;;;5057087;28;20191;-83
2023/10/11 11:28:04;;;;;;;3.60;3.30;;;23.30;47.90;;;;;;5056878;28;20201;-83
2023/10/11 11:30:33;;;;;;;3.95;2.80;;;23.40;48.00;;;;;;5040340;28;20223;-83
2023/10/11 11:33:08;;;;;;;3.42;2.97;;;23.40;47.90;;;;;;5040087;28;20189;-83
2023/10/11 11:35:43;;;;;;;2.88;2.67;;;23.30;47.90;;;;;;5056983;28;20224;-83
2023/10/11 11:38:20;;;;;;;3.47;3.00;;;23.40;48.00;;;;;;5040057;28;20201;-83
2023/10/11 11:40:47;;;;;;;3.00;2.70;;;23.40;47.90;;;;;;5056326;28;20217;-83
2023/10/11 11:43:17;;;;;;;3.30;3.00;;;23.40;47.90;;;;;;5056514;28;20213;-83
2023/10/11 11:45:44;;;;;;;3.83;2.90;;;23.40;48.00;;;;;;5041127;28;20187;-83
2023/10/11 11:48:13;;;;;;;3.25;2.80;;;23.50;48.10;;;;;;5056713;28;20240;-83
2023/10/11 11:50:40;;;;;;;4.20;2.72;;;23.50;48.00;;;;;;5057009;28;20234;-82
2023/10/11 11:53:07;;;;;;;4.32;3.00;;;23.50;48.00;;;;;;5058970;28;20199;-82
2023/10/11 11:55:36;;;;;;;3.33;3.00;;;23.50;48.70;;;;;;5058732;28;20199;-82
2023/10/11 11:58:10;;;;;;;3.15;2.85;;;23.50;48.10;;;;;;5077053;28;20187;-82
2023/10/11 12:00:40;;;;;;;3.42;3.08;;;23.50;48.10;;;;;;5047588;28;20210;-82
2023/10/11 12:03:08;;;;;;;3.60;2.83;;;23.50;48.10;;;;;;5062560;28;20191;-82
2023/10/11 12:05:40;;;;;;;3.20;2.83;;;23.50;48.10;;;;;;5062563;28;20252;-82
2023/10/11 12:08:08;;;;;;;3.15;2.85;;;23.50;48.20;;;;;;5063407;28;20194;-82
2023/10/11 12:10:37;;;;;;;3.05;2.67;;;23.50;48.20;;;;;;5063194;28;20214;-82
2023/10/11 12:13:08;;;;;;;3.40;3.10;;;23.60;48.30;;;;;;5063227;28;20260;-82
2023/10/11 12:15:35;;;;;;;3.67;3.10;;;23.50;48.30;;;;;;5046020;28;20197;-82
2023/10/11 12:18:05;;;;;;;2.92;2.55;;;23.50;48.30;;;;;;5062023;28;20214;-82
2023/10/11 12:20:34;;;;;;;3.30;3.00;;;23.50;48.30;;;;;;5061702;28;20276;-82
2023/10/11 12:23:08;;;;;;;3.75;3.00;;;23.50;48.30;;;;;;5079723;28;20553;-82
2023/10/11 12:25:40;;;;;;;3.55;2.90;;;23.50;48.40;;;;;;5061189;28;20256;-82
2023/10/11 12:28:08;;;;;;;3.55;2.67;;;23.50;48.50;;;;;;5061313;28;20198;-81
2023/10/11 12:30:35;;;;;;;3.33;2.83;;;23.50;48.50;;;;;;5064007;28;20665;-81
2023/10/11 12:33:06;;;;;;;2.95;2.72;;;23.50;48.50;;;;;;5063971;28;20290;-82
2023/10/11 12:35:39;;;;;;;3.20;2.80;;;23.50;48.50;;;;;;5060005;28;20584;-82
2023/10/11 12:38:07;;;;;;;3.83;3.00;;;23.50;48.60;;;;;;5059193;28;20191;-82
2023/10/11 12:40:34;;;;;;;3.38;2.90;;;23.50;48.60;;;;;;5059617;28;20210;-82
2023/10/11 12:43:07;;;;;;;3.20;2.50;;;23.50;48.60;;;;;;5077753;28;20221;-82
2023/10/11 12:45:35;;;;;;;3.17;2.88;;;23.50;48.60;;;;;;5060843;28;20256;-82
2023/10/11 12:48:06;;;;;;;3.22;2.72;;;23.50;48.60;;;;;;5060128;28;20294;-82
2023/10/11 12:50:37;;;;;;;3.20;2.90;;;23.50;48.60;;;;;;5044454;28;20573;-82
2023/10/11 12:53:10;;;;;;;3.20;2.90;;;23.50;48.70;;;;;;5060127;28;20195;-82
2023/10/11 12:55:41;;;;;;;3.72;2.80;;;23.50;48.70;;;;;;5044382;28;20249;-82
2023/10/11 12:58:12;;;;;;;2.70;2.50;;;23.40;48.80;;;;;;5059657;28;20210;-82
2023/10/11 13:00:48;;;;;;;3.00;2.70;;;23.40;48.80;;;;;;5059744;28;20221;-82
2023/10/11 13:03:18;;;;;;;2.50;2.30;;;23.40;48.80;;;;;;5059687;28;20599;-82
2023/10/11 13:05:49;;;;;;;3.28;2.75;;;23.40;48.90;;;;;;5060207;28;20205;-82
2023/10/11 13:08:37;;;;;;;3.30;3.00;;;23.30;48.90;;;;;;5076977;28;20190;-81
2023/10/11 13:11:05;;;;;;;3.10;2.60;;;23.40;49.00;;;;;;5075834;28;20256;-81
2023/10/11 13:13:34;;;;;;;3.10;2.60;;;23.40;49.70;;;;;;5058890;28;20233;-81
2023/10/11 13:16:01;;;;;;;2.90;2.70;;;23.30;49.00;;;;;;5059188;28;20224;-81
2023/10/11 13:18:32;;;;;;;2.80;2.50;;;23.30;49.10;;;;;;5058517;28;20195;-81
2023/10/11 13:21:00;;;;;;;3.70;2.88;;;23.30;49.10;;;;;;5058603;28;20206;-81
2023/10/11 13:23:30;;;;;;;3.50;2.70;;;23.30;49.20;;;;;;5058615;28;20263;-82
2023/10/11 13:25:59;;;;;;;3.00;2.60;;;23.30;49.20;;;;;;5064393;28;20205;-81
2023/10/11 13:28:28;;;;;;;3.20;2.80;;;23.30;49.20;;;;;;5062008;28;20189;-81
2023/10/11 13:31:01;;;;;;;2.95;2.65;;;23.20;49.20;;;;;;5059441;28;20222;-81